McConnellstown, Pennsylvania
Current Conditions -  °F | °C
As of 5:53 PM on Wednesday 17 Dec 2014 (Local Time) from KAOO Reporting Station
Overcast Overcast  
Wind Chill: 22°   Ceiling: 2400
Heat Index: 33°   Visibility: 10mi
Dew Point: 25°   Wind: 18mph
Humidity: 72%   Direction: 280°W
Pressure: 30"   Gusts: 24mph
Location:  40.45°N, 78.08°W
Report Text: KAOO 172253Z AUTO 28016G21KT 10SM OVC024 01/M04 A3000 RMK AO2 SLP173 T00061039
Loading
Personal Weather Stations






























Interactive Weather Map New forecast layout! Learn more

10-Day Weather Forecast

Advertisements
Track Severe Weather on mobile